createdAt,value
2018-08-31T00:00:02.739Z,10.17
2018-08-31T00:01:02.474Z,10.13
2018-08-31T00:02:02.206Z,10.17
2018-08-31T00:03:02.453Z,10.15
2018-08-31T00:04:02.444Z,10.14
2018-08-31T00:05:02.177Z,10.05
2018-08-31T00:06:02.424Z,10.07
2018-08-31T00:07:02.670Z,10.02
2018-08-31T00:08:02.663Z,10.08
2018-08-31T00:09:02.398Z,10.03
2018-08-31T00:10:02.644Z,10.08
2018-08-31T00:11:02.667Z,9.99
2018-08-31T00:12:02.685Z,10
2018-08-31T00:13:02.358Z,10.03
2018-08-31T00:14:02.345Z,9.9
2018-08-31T00:15:02.610Z,9.92
2018-08-31T00:16:02.330Z,9.93
2018-08-31T00:17:02.578Z,9.99
2018-08-31T00:18:02.576Z,9.93
2018-08-31T00:19:02.561Z,9.96
2018-08-31T00:20:02.292Z,9.93
2018-08-31T00:21:02.542Z,9.95
2018-08-31T00:22:02.530Z,9.96
2018-08-31T00:23:02.521Z,9.9
2018-08-31T00:24:02.517Z,9.92
2018-08-31T00:25:02.246Z,9.9
2018-08-31T00:26:02.493Z,9.88
2018-08-31T00:27:02.492Z,9.88
2018-08-31T00:28:02.473Z,9.84
2018-08-31T00:29:02.461Z,9.8
2018-08-31T00:30:02.196Z,9.8
2018-08-31T00:31:02.190Z,9.82
2018-08-31T00:32:02.438Z,9.66
2018-08-31T00:33:02.422Z,9.77
2018-08-31T00:34:02.413Z,9.75
2018-08-31T00:35:02.409Z,9.71
2018-08-31T00:36:02.140Z,9.75
2018-08-31T00:37:02.388Z,9.75
2018-08-31T00:38:01.864Z,9.66
2018-08-31T00:39:02.366Z,9.67
2018-08-31T00:40:02.352Z,9.67
2018-08-31T00:41:02.087Z,9.7
2018-08-31T00:42:02.380Z,9.88
2018-08-31T00:43:02.072Z,9.77
2018-08-31T00:44:02.322Z,9.9
2018-08-31T00:45:02.302Z,10.03
2018-08-31T00:46:02.042Z,10.15
2018-08-31T00:47:02.284Z,10.07
2018-08-31T00:48:02.019Z,10.11
2018-08-31T00:49:02.011Z,10.29
2018-08-31T00:50:02.300Z,10.21
2018-08-31T00:51:02.244Z,10.36
2018-08-31T00:52:01.725Z,10.41
2018-08-31T00:53:02.237Z,10.42
2018-08-31T00:54:02.224Z,10.55
2018-08-31T00:55:02.209Z,10.61
2018-08-31T00:56:02.215Z,10.65
2018-08-31T00:57:02.189Z,10.65
2018-08-31T00:58:01.927Z,10.77
2018-08-31T00:59:01.916Z,10.77
2018-08-31T01:00:02.169Z,10.79
2018-08-31T01:01:02.153Z,10.92
2018-08-31T01:02:01.884Z,10.95
2018-08-31T01:03:02.134Z,10.94
2018-08-31T01:04:01.865Z,10.91
2018-08-31T01:05:02.115Z,11.02
2018-08-31T01:06:01.853Z,11.03
2018-08-31T01:07:01.836Z,11.12
2018-08-31T01:08:01.828Z,11.06
2018-08-31T01:09:01.820Z,11.09
2018-08-31T01:10:01.815Z,11.06
2018-08-31T01:11:02.064Z,11.23
2018-08-31T01:12:02.059Z,11.13
2018-08-31T01:13:02.039Z,11.16
2018-08-31T01:14:02.033Z,11.15
2018-08-31T01:15:02.024Z,11.24
2018-08-31T01:16:02.060Z,11.26
2018-08-31T01:17:02.005Z,11.23
2018-08-31T01:18:01.995Z,11.26
2018-08-31T01:19:01.732Z,11.3
2018-08-31T01:20:01.980Z,11.24
2018-08-31T01:21:01.711Z,11.26
2018-08-31T01:22:01.703Z,11.34
2018-08-31T01:23:01.703Z,11.34
2018-08-31T01:24:01.961Z,11.26
2018-08-31T01:25:01.937Z,11.3
2018-08-31T01:26:01.919Z,11.43
2018-08-31T01:27:01.657Z,11.45
2018-08-31T01:28:01.915Z,11.49
2018-08-31T01:29:01.897Z,11.45
2018-08-31T01:30:01.893Z,11.48
2018-08-31T01:31:01.876Z,11.51
2018-08-31T01:32:01.616Z,11.46
2018-08-31T01:33:01.868Z,11.63
2018-08-31T01:34:01.854Z,11.56
2018-08-31T01:35:01.589Z,11.64
2018-08-31T01:36:01.838Z,11.64
2018-08-31T01:37:01.314Z,11.59
2018-08-31T01:38:01.563Z,11.66
2018-08-31T01:39:01.815Z,11.75
2018-08-31T01:40:01.545Z,11.64
2018-08-31T01:41:01.793Z,11.7
2018-08-31T01:42:01.790Z,11.64
2018-08-31T01:43:01.778Z,11.73
2018-08-31T01:44:01.769Z,11.78
2018-08-31T01:45:01.501Z,11.76
2018-08-31T01:46:01.511Z,11.79
2018-08-31T01:47:01.482Z,11.76
2018-08-31T01:48:01.731Z,11.75
2018-08-31T01:49:01.729Z,11.76
2018-08-31T01:50:01.746Z,11.85
2018-08-31T01:51:01.707Z,11.7
2018-08-31T01:52:01.697Z,11.75
2018-08-31T01:53:01.687Z,11.85
2018-08-31T01:54:01.689Z,11.75
2018-08-31T01:55:01.685Z,11.73
2018-08-31T01:56:01.408Z,11.81
2018-08-31T01:57:01.403Z,11.84
2018-08-31T01:58:01.649Z,11.79
2018-08-31T01:59:01.383Z,11.91
2018-08-31T02:00:01.376Z,11.85
2018-08-31T02:01:01.367Z,11.78
2018-08-31T02:02:01.361Z,11.82
2018-08-31T02:03:01.609Z,11.95
2018-08-31T02:04:01.656Z,11.88
2018-08-31T02:05:01.591Z,11.98
2018-08-31T02:06:01.330Z,11.97
2018-08-31T02:07:01.613Z,12.03
2018-08-31T02:08:01.573Z,12.03
2018-08-31T02:09:01.302Z,12.04
2018-08-31T02:10:01.304Z,12.03
2018-08-31T02:11:01.545Z,11.97
2018-08-31T02:12:01.538Z,12
2018-08-31T02:13:01.522Z,12.08
2018-08-31T02:14:01.259Z,12.1
2018-08-31T02:15:00.997Z,12.05
2018-08-31T02:16:01.499Z,12.03
2018-08-31T02:17:01.491Z,12.07
2018-08-31T02:18:01.489Z,12.04
2018-08-31T02:19:01.477Z,12.04
2018-08-31T02:20:01.478Z,12.05
2018-08-31T02:21:01.462Z,12.05
2018-08-31T02:22:01.450Z,12.04
2018-08-31T02:23:01.443Z,12.03
2018-08-31T02:24:01.434Z,12.08
2018-08-31T02:25:01.425Z,12.04
2018-08-31T02:26:00.903Z,12.07
2018-08-31T02:27:01.159Z,12.07
2018-08-31T02:28:01.407Z,12.1
2018-08-31T02:29:00.881Z,12.18
2018-08-31T02:30:01.126Z,12.05
2018-08-31T02:31:01.120Z,12.05
2018-08-31T02:32:00.856Z,12.01
2018-08-31T02:33:01.112Z,12.07
2018-08-31T02:34:01.353Z,12.07
2018-08-31T02:35:01.091Z,12.1
2018-08-31T02:36:01.335Z,12.11
2018-08-31T02:37:01.334Z,12
2018-08-31T02:38:01.066Z,12.05
2018-08-31T02:39:01.064Z,12.05
2018-08-31T02:40:01.306Z,11.97
2018-08-31T02:41:01.296Z,12.03
2018-08-31T02:42:01.290Z,12.01
2018-08-31T02:43:01.287Z,12.03
2018-08-31T02:44:01.023Z,12.04
2018-08-31T02:45:01.266Z,12.03
2018-08-31T02:46:01.260Z,12.01
2018-08-31T02:47:01.254Z,11.98
2018-08-31T02:48:00.983Z,12.01
2018-08-31T02:49:01.236Z,11.91
2018-08-31T02:50:00.970Z,12.01
2018-08-31T02:51:01.223Z,12.04
2018-08-31T02:52:00.954Z,11.97
2018-08-31T02:53:01.211Z,12.03
2018-08-31T02:54:01.198Z,11.95
2018-08-31T02:55:01.186Z,11.89
2018-08-31T02:56:00.917Z,11.78
2018-08-31T02:57:01.178Z,11.88
2018-08-31T02:58:01.157Z,11.71
2018-08-31T02:59:01.155Z,11.75
2018-08-31T03:00:00.889Z,11.63
2018-08-31T03:01:00.886Z,11.64
2018-08-31T03:02:01.129Z,11.57
2018-08-31T03:03:01.118Z,11.51
2018-08-31T03:04:01.115Z,11.53
2018-08-31T03:05:01.106Z,11.59
2018-08-31T03:06:01.097Z,11.46
2018-08-31T03:07:01.094Z,11.39
2018-08-31T03:08:01.088Z,11.38
2018-08-31T03:09:00.823Z,11.48
2018-08-31T03:10:01.062Z,11.46
2018-08-31T03:11:01.058Z,11.43
2018-08-31T03:12:01.055Z,11.42
2018-08-31T03:13:00.777Z,11.28
2018-08-31T03:14:00.772Z,11.35
2018-08-31T03:15:00.766Z,11.28
2018-08-31T03:16:01.012Z,11.34
2018-08-31T03:17:01.005Z,11.28
2018-08-31T03:18:00.999Z,11.35
2018-08-31T03:19:00.726Z,11.31
2018-08-31T03:20:00.986Z,11.31
2018-08-31T03:21:00.970Z,11.33
2018-08-31T03:22:00.969Z,11.33
2018-08-31T03:23:00.697Z,11.28
2018-08-31T03:24:00.946Z,11.34
2018-08-31T03:25:00.684Z,11.33
2018-08-31T03:26:00.412Z,11.3
2018-08-31T03:27:00.922Z,11.24
2018-08-31T03:28:00.661Z,11.31
2018-08-31T03:29:00.910Z,11.23
2018-08-31T03:30:00.889Z,11.21
2018-08-31T03:31:00.886Z,11.21
2018-08-31T03:32:00.621Z,11.2
2018-08-31T03:33:00.613Z,11.18
2018-08-31T03:34:00.871Z,11.15
2018-08-31T03:35:00.597Z,11.18
2018-08-31T03:36:00.592Z,11.13
2018-08-31T03:37:00.680Z,11.21
2018-08-31T03:38:00.569Z,11.27
2018-08-31T03:39:00.562Z,11.3
2018-08-31T03:40:00.568Z,11.31
2018-08-31T03:41:00.803Z,11.33
2018-08-31T03:42:00.789Z,11.31
2018-08-31T03:43:00.786Z,11.34
2018-08-31T03:44:00.774Z,11.35
2018-08-31T03:45:00.520Z,11.46
2018-08-31T03:46:00.756Z,11.35
2018-08-31T03:47:00.235Z,11.39
2018-08-31T03:48:00.744Z,11.49
2018-08-31T03:49:00.482Z,11.43
2018-08-31T03:50:00.467Z,11.41
2018-08-31T03:51:00.458Z,11.34
2018-08-31T03:52:00.713Z,11.31
2018-08-31T03:53:00.696Z,11.39
2018-08-31T03:54:00.688Z,11.28
2018-08-31T03:55:00.422Z,11.31
2018-08-31T03:56:00.679Z,11.33
2018-08-31T03:57:00.664Z,11.41
2018-08-31T03:58:00.657Z,11.46
2018-08-31T03:59:00.651Z,11.39
2018-08-31T04:00:00.637Z,11.42
2018-08-31T04:01:00.368Z,11.52
2018-08-31T04:02:00.618Z,11.41
2018-08-31T04:03:00.356Z,11.45
2018-08-31T04:04:00.607Z,11.52
2018-08-31T04:05:00.339Z,11.43
2018-08-31T04:06:00.326Z,11.41
2018-08-31T04:07:00.578Z,11.45
2018-08-31T04:08:00.563Z,11.42
2018-08-31T04:09:00.565Z,11.43
2018-08-31T04:10:00.546Z,11.46
2018-08-31T04:11:00.543Z,11.42
2018-08-31T04:12:00.276Z,11.35
2018-08-31T04:13:00.530Z,11.41
2018-08-31T04:14:00.530Z,11.39
2018-08-31T04:15:00.969Z,11.41
2018-08-31T04:16:00.507Z,11.45
2018-08-31T04:17:00.493Z,11.46
2018-08-31T04:18:00.487Z,11.43
2018-08-31T04:19:00.470Z,11.48
2018-08-31T04:20:00.463Z,11.42
2018-08-31T04:21:00.460Z,11.46
2018-08-31T04:22:00.207Z,11.38
2018-08-31T04:23:00.192Z,11.42
2018-08-31T04:24:00.432Z,11.43
2018-08-31T04:25:00.428Z,11.46
2018-08-31T04:26:00.415Z,11.41
2018-08-31T04:27:00.407Z,11.35
2018-08-31T04:28:00.401Z,11.26
2018-08-31T04:29:00.390Z,11.23
2018-08-31T04:30:00.380Z,11.23
2018-08-31T04:31:00.376Z,11.18
2018-08-31T04:32:00.113Z,11.18
2018-08-31T04:33:00.352Z,11.12
2018-08-31T04:34:00.621Z,11.1
2018-08-31T04:35:00.338Z,11.16
2018-08-31T04:36:00.331Z,11.16
2018-08-31T04:37:00.339Z,11.15
2018-08-31T04:38:00.321Z,11.12
2018-08-31T04:39:00.050Z,11.15
2018-08-31T04:40:00.298Z,11.28
2018-08-31T04:41:00.291Z,11.18
2018-08-31T04:42:00.280Z,11.23
2018-08-31T04:43:00.739Z,11.23
2018-08-31T04:44:00.042Z,11.2
2018-08-31T04:45:00.249Z,11.33
2018-08-31T04:46:00.241Z,11.3
2018-08-31T04:46:59.980Z,11.28
2018-08-31T04:48:00.227Z,11.27
2018-08-31T04:49:00.226Z,11.48
2018-08-31T04:50:00.217Z,11.41
2018-08-31T04:51:00.201Z,11.45
2018-08-31T04:52:00.208Z,11.48
2018-08-31T04:52:59.927Z,11.49
2018-08-31T04:54:00.180Z,11.48
2018-08-31T04:55:00.171Z,11.49
2018-08-31T04:56:00.157Z,11.56
2018-08-31T04:57:00.151Z,11.57
2018-08-31T04:58:00.140Z,11.6
2018-08-31T04:59:00.524Z,11.64
2018-08-31T04:59:59.868Z,11.68
2018-08-31T05:01:00.121Z,11.76
2018-08-31T05:02:00.112Z,11.67
2018-08-31T05:03:00.096Z,11.66
2018-08-31T05:04:00.090Z,11.82
2018-08-31T05:05:00.083Z,11.81
2018-08-31T05:06:00.077Z,11.88
2018-08-31T05:07:00.065Z,11.94
2018-08-31T05:07:59.543Z,11.84
2018-08-31T05:08:59.797Z,11.91
2018-08-31T05:09:59.785Z,11.91
2018-08-31T05:11:00.044Z,11.94
2018-08-31T05:12:00.027Z,12
2018-08-31T05:13:00.026Z,12.05
2018-08-31T05:14:00.015Z,12.07
2018-08-31T05:14:59.748Z,12.03
2018-08-31T05:16:00.133Z,12.05
2018-08-31T05:16:59.985Z,12.07
2018-08-31T05:17:59.979Z,12.08
2018-08-31T05:18:59.968Z,12.07
2018-08-31T05:19:59.961Z,12.11
2018-08-31T05:20:59.695Z,12.15
2018-08-31T05:21:59.690Z,12.16
2018-08-31T05:23:00.105Z,12.18
2018-08-31T05:23:59.668Z,12.19
2018-08-31T05:24:59.964Z,12.36
2018-08-31T05:25:59.905Z,12.33
2018-08-31T05:26:59.641Z,12.38
2018-08-31T05:27:59.633Z,12.33
2018-08-31T05:28:59.631Z,12.34
2018-08-31T05:29:59.878Z,12.28
2018-08-31T05:30:59.867Z,12.43
2018-08-31T05:31:59.858Z,12.4
2018-08-31T05:32:59.601Z,12.4
2018-08-31T05:33:59.868Z,12.52
2018-08-31T05:34:59.837Z,12.52
2018-08-31T05:35:59.831Z,12.63
2018-08-31T05:36:59.840Z,12.63
2018-08-31T05:37:59.813Z,12.63
2018-08-31T05:38:59.806Z,12.56
2018-08-31T05:39:59.800Z,12.63
2018-08-31T05:40:59.793Z,12.65
2018-08-31T05:41:59.793Z,12.66
2018-08-31T05:42:59.514Z,12.65
2018-08-31T05:43:59.252Z,12.69
2018-08-31T05:44:59.761Z,12.69
2018-08-31T05:45:59.497Z,12.74
2018-08-31T05:46:59.489Z,12.74
2018-08-31T05:47:59.490Z,12.74
2018-08-31T05:48:59.724Z,12.74
2018-08-31T05:49:59.462Z,12.77
2018-08-31T05:50:59.718Z,12.81
2018-08-31T05:51:59.713Z,12.78
2018-08-31T05:52:59.701Z,12.83
2018-08-31T05:53:59.697Z,12.86
2018-08-31T05:54:59.425Z,12.92
2018-08-31T05:55:59.672Z,12.86
2018-08-31T05:56:59.665Z,12.91
2018-08-31T05:57:59.666Z,12.89
2018-08-31T05:58:59.654Z,12.84
2018-08-31T05:59:59.400Z,12.92
2018-08-31T06:00:59.383Z,12.94
2018-08-31T06:01:59.437Z,12.95
2018-08-31T06:02:59.368Z,13.07
2018-08-31T06:03:59.361Z,13.09
2018-08-31T06:04:59.094Z,13.27
2018-08-31T06:05:59.603Z,13.27
2018-08-31T06:06:59.338Z,13.17
2018-08-31T06:07:59.332Z,13.27
2018-08-31T06:08:59.582Z,13.35
2018-08-31T06:09:59.571Z,13.36
2018-08-31T06:10:59.566Z,13.36
2018-08-31T06:11:59.890Z,13.31
2018-08-31T06:12:59.306Z,13.25
2018-08-31T06:13:59.285Z,13.35
2018-08-31T06:14:59.539Z,13.35
2018-08-31T06:15:59.527Z,13.27
2018-08-31T06:16:59.528Z,13.32
2018-08-31T06:17:59.253Z,13.28
2018-08-31T06:18:59.507Z,13.39
2018-08-31T06:19:59.501Z,13.44
2018-08-31T06:20:59.605Z,13.5
2018-08-31T06:21:59.226Z,13.55
2018-08-31T06:22:59.220Z,13.53
2018-08-31T06:23:59.478Z,13.51
2018-08-31T06:24:59.460Z,13.63
2018-08-31T06:25:59.196Z,13.6
2018-08-31T06:26:59.586Z,13.6
2018-08-31T06:27:59.437Z,13.65
2018-08-31T06:28:59.180Z,13.69
2018-08-31T06:29:59.421Z,13.72
2018-08-31T06:30:59.422Z,13.7
2018-08-31T06:31:59.170Z,13.73
2018-08-31T06:32:59.405Z,13.84
2018-08-31T06:33:59.683Z,13.9
2018-08-31T06:34:59.393Z,13.84
2018-08-31T06:35:59.138Z,13.79
2018-08-31T06:36:59.385Z,13.81
2018-08-31T06:37:59.112Z,13.73
2018-08-31T06:38:59.365Z,13.81
2018-08-31T06:39:59.369Z,13.83
2018-08-31T06:40:58.838Z,13.86
2018-08-31T06:41:59.086Z,13.95
2018-08-31T06:42:59.337Z,13.94
2018-08-31T06:43:59.377Z,13.97
2018-08-31T06:44:59.330Z,14.11
2018-08-31T06:45:59.319Z,14.09
2018-08-31T06:46:59.052Z,14.02
2018-08-31T06:47:59.295Z,14.06
2018-08-31T06:48:59.290Z,14.09
2018-08-31T06:49:59.285Z,14.15
2018-08-31T06:50:58.771Z,14.13
2018-08-31T06:51:59.282Z,14.05
2018-08-31T06:52:59.269Z,14.09
2018-08-31T06:53:59.257Z,14.24
2018-08-31T06:54:58.999Z,14.15
2018-08-31T06:55:58.998Z,14.16
2018-08-31T06:56:59.264Z,14.13
2018-08-31T06:57:59.235Z,14.08
2018-08-31T06:58:59.289Z,14.15
2018-08-31T06:59:59.232Z,14.15
2018-08-31T07:00:59.222Z,14.13
2018-08-31T07:01:59.213Z,14.2
2018-08-31T07:02:59.208Z,14.11
2018-08-31T07:03:59.105Z,14.13
2018-08-31T07:04:59.190Z,14.11
2018-08-31T07:05:59.181Z,14.11
2018-08-31T07:06:59.178Z,14.06
2018-08-31T07:07:59.175Z,14.09
2018-08-31T07:08:59.158Z,14.06
2018-08-31T07:09:59.152Z,14.02
2018-08-31T07:10:59.147Z,14.05
2018-08-31T07:11:58.629Z,14.05
2018-08-31T07:12:58.880Z,14.09
2018-08-31T07:13:58.871Z,14.09
2018-08-31T07:14:59.125Z,14.21
2018-08-31T07:15:59.113Z,14.11
2018-08-31T07:16:59.109Z,14.11
2018-08-31T07:17:59.106Z,14.12
2018-08-31T07:18:59.092Z,14.16
2018-08-31T07:19:59.424Z,14.26
2018-08-31T07:20:59.093Z,14.36
2018-08-31T07:21:59.076Z,14.46
2018-08-31T07:22:59.069Z,14.51
2018-08-31T07:23:59.062Z,14.69
2018-08-31T07:24:58.802Z,14.85
2018-08-31T07:25:58.795Z,14.87
2018-08-31T07:26:58.908Z,15.01
2018-08-31T07:27:59.043Z,15.07
2018-08-31T07:28:59.031Z,15.18
2018-08-31T07:29:59.024Z,15.31
2018-08-31T07:30:58.764Z,15.52
2018-08-31T07:31:59.019Z,15.63
2018-08-31T07:32:59.006Z,15.74
2018-08-31T07:33:59.000Z,15.86
2018-08-31T07:34:58.745Z,15.81
2018-08-31T07:35:58.733Z,15.75
2018-08-31T07:36:58.986Z,15.55
2018-08-31T07:37:58.989Z,15.52
2018-08-31T07:38:58.969Z,15.49
2018-08-31T07:39:58.978Z,15.59
2018-08-31T07:40:58.962Z,15.71
2018-08-31T07:41:58.963Z,15.92
2018-08-31T07:42:58.964Z,16
2018-08-31T07:43:58.945Z,16.06
2018-08-31T07:44:58.679Z,16.22
2018-08-31T07:45:58.929Z,16.29
2018-08-31T07:46:58.936Z,16.34
2018-08-31T07:47:59.197Z,16.29
2018-08-31T07:48:58.917Z,16.36
2018-08-31T07:49:58.910Z,16.4
2018-08-31T07:50:58.647Z,16.45
2018-08-31T07:51:58.910Z,16.59
2018-08-31T07:52:58.900Z,16.74
2018-08-31T07:53:59.150Z,16.84
2018-08-31T07:54:58.885Z,16.72
2018-08-31T07:55:58.878Z,16.7
2018-08-31T07:56:58.620Z,16.57
2018-08-31T07:57:58.918Z,16.73
2018-08-31T07:58:58.351Z,16.7
2018-08-31T07:59:58.862Z,16.77
2018-08-31T08:00:58.885Z,16.7
2018-08-31T08:01:58.849Z,16.67
2018-08-31T08:02:58.852Z,16.69
2018-08-31T08:03:58.845Z,16.65
2018-08-31T08:04:58.843Z,16.72
2018-08-31T08:05:58.841Z,16.94
2018-08-31T08:06:58.829Z,17.07
2018-08-31T08:07:58.832Z,17.05
2018-08-31T08:08:58.825Z,17.1
2018-08-31T08:09:58.819Z,17.09
2018-08-31T08:10:58.813Z,16.91
2018-08-31T08:11:58.809Z,16.94
2018-08-31T08:12:58.550Z,17
2018-08-31T08:13:58.803Z,16.97
2018-08-31T08:14:58.858Z,16.9
2018-08-31T08:15:58.539Z,16.9
2018-08-31T08:16:58.272Z,16.74
2018-08-31T08:17:58.790Z,16.66
2018-08-31T08:18:58.521Z,16.44
2018-08-31T08:19:58.780Z,16.25
2018-08-31T08:20:58.773Z,16.27
2018-08-31T08:21:58.768Z,16.14
2018-08-31T08:22:58.504Z,15.95
2018-08-31T08:23:58.757Z,15.95
2018-08-31T08:24:58.754Z,16.11
2018-08-31T08:25:58.745Z,16.17
2018-08-31T08:26:58.744Z,16.18
2018-08-31T08:27:58.486Z,16.16
2018-08-31T08:28:58.734Z,16.32
2018-08-31T08:29:58.474Z,16.33
2018-08-31T08:30:58.469Z,16.29
2018-08-31T08:31:58.729Z,16.27
2018-08-31T08:32:58.458Z,16.45
2018-08-31T08:33:58.454Z,16.51
2018-08-31T08:34:58.716Z,16.73
2018-08-31T08:35:58.916Z,17.02
2018-08-31T08:36:58.712Z,17.12
2018-08-31T08:37:58.697Z,17.17
2018-08-31T08:38:58.689Z,17.21
2018-08-31T08:39:58.426Z,17.35
2018-08-31T08:40:58.685Z,17.36
2018-08-31T08:41:58.719Z,17.35
2018-08-31T08:42:58.419Z,17.35
2018-08-31T08:43:58.413Z,17.31
2018-08-31T08:44:58.665Z,17.21
2018-08-31T08:45:58.660Z,17.22
2018-08-31T08:46:58.662Z,17.17
2018-08-31T08:47:58.396Z,17.05
2018-08-31T08:48:58.649Z,17
2018-08-31T08:49:58.654Z,16.99
2018-08-31T08:50:58.385Z,16.99
2018-08-31T08:51:58.638Z,16.7
2018-08-31T08:52:58.382Z,16.57
2018-08-31T08:53:58.371Z,16.44
2018-08-31T08:54:58.365Z,16.42
2018-08-31T08:55:58.630Z,16.44
2018-08-31T08:56:58.622Z,16.48
2018-08-31T08:57:58.612Z,16.58
2018-08-31T08:58:58.611Z,16.7
2018-08-31T08:59:58.349Z,16.7
2018-08-31T09:00:58.343Z,16.8
2018-08-31T09:01:58.597Z,16.84
2018-08-31T09:02:58.613Z,16.72
2018-08-31T09:03:58.591Z,16.7
2018-08-31T09:04:58.579Z,16.82
2018-08-31T09:05:58.579Z,16.94
2018-08-31T09:06:58.576Z,16.94
2018-08-31T09:07:58.565Z,17.1
2018-08-31T09:08:58.569Z,17.09
2018-08-31T09:09:58.305Z,17.2
2018-08-31T09:10:58.564Z,17.54
2018-08-31T09:11:58.868Z,17.69
2018-08-31T09:12:58.545Z,17.83
2018-08-31T09:13:58.551Z,18.03
2018-08-31T09:14:58.281Z,18.1
2018-08-31T09:15:58.284Z,18.2
2018-08-31T09:16:58.532Z,18.16
2018-08-31T09:17:58.530Z,18.1
2018-08-31T09:18:58.527Z,18.1
2018-08-31T09:19:58.527Z,17.86
2018-08-31T09:20:58.518Z,17.84
2018-08-31T09:21:58.263Z,17.81
2018-08-31T09:22:58.250Z,17.74
2018-08-31T09:23:58.512Z,17.71
2018-08-31T09:24:58.252Z,17.65
2018-08-31T09:25:58.500Z,17.68
2018-08-31T09:26:58.501Z,17.68
2018-08-31T09:27:58.497Z,17.84
2018-08-31T09:28:57.975Z,17.9
2018-08-31T09:29:58.501Z,17.87
2018-08-31T09:30:58.487Z,18.2
2018-08-31T09:31:58.224Z,18.34
2018-08-31T09:32:58.478Z,18.44
2018-08-31T09:33:58.478Z,18.38
2018-08-31T09:34:58.474Z,18.26
2018-08-31T09:35:58.211Z,17.94
2018-08-31T09:36:58.212Z,17.81
2018-08-31T09:37:58.202Z,17.76
2018-08-31T09:38:58.197Z,17.88
2018-08-31T09:39:58.451Z,18.08
2018-08-31T09:40:58.449Z,18.2
2018-08-31T09:41:58.189Z,18.17
2018-08-31T09:42:58.454Z,18.06
2018-08-31T09:43:58.795Z,17.95
2018-08-31T09:44:58.440Z,17.84
2018-08-31T09:45:58.441Z,17.68
2018-08-31T09:46:58.430Z,17.58
2018-08-31T09:47:58.423Z,17.55
2018-08-31T09:48:58.434Z,17.8
2018-08-31T09:49:58.158Z,18.05
2018-08-31T09:50:57.900Z,18.16
2018-08-31T09:51:58.415Z,18.35
2018-08-31T09:52:58.413Z,18.39
2018-08-31T09:53:58.148Z,18.26
2018-08-31T09:54:58.147Z,18.19
2018-08-31T09:55:58.401Z,18.34
2018-08-31T09:56:58.402Z,18.42
2018-08-31T09:57:58.139Z,18.71
2018-08-31T09:58:58.131Z,18.96
2018-08-31T09:59:58.126Z,19.24
2018-08-31T10:00:58.379Z,19.32
2018-08-31T10:01:58.387Z,19.45
2018-08-31T10:02:58.121Z,19.47
2018-08-31T10:03:58.375Z,19.31
2018-08-31T10:04:58.372Z,19.28
2018-08-31T10:05:58.114Z,19.17
2018-08-31T10:06:58.368Z,19.05
2018-08-31T10:07:58.361Z,18.99
2018-08-31T10:08:58.362Z,18.89
2018-08-31T10:09:58.357Z,18.65
2018-08-31T10:10:58.773Z,18.39
2018-08-31T10:11:58.099Z,18.14
2018-08-31T10:12:58.346Z,18.06
2018-08-31T10:13:58.345Z,17.96
2018-08-31T10:14:57.828Z,17.98
2018-08-31T10:15:58.084Z,18.03
2018-08-31T10:16:58.339Z,18.2
2018-08-31T10:17:58.082Z,18.31
2018-08-31T10:18:58.486Z,18.53
2018-08-31T10:19:58.328Z,18.78
2018-08-31T10:20:58.334Z,19.09
2018-08-31T10:21:58.330Z,19.3
2018-08-31T10:22:58.057Z,19.49
2018-08-31T10:23:58.323Z,19.63
2018-08-31T10:24:58.314Z,19.79
2018-08-31T10:25:58.309Z,19.7
2018-08-31T10:26:58.310Z,19.89
2018-08-31T10:27:58.303Z,19.82
2018-08-31T10:28:58.307Z,19.5
2018-08-31T10:29:58.086Z,19.55
2018-08-31T10:30:58.293Z,19.45
2018-08-31T10:31:58.040Z,19.25
2018-08-31T10:32:58.033Z,19.1
2018-08-31T10:33:58.037Z,18.96
2018-08-31T10:34:58.029Z,18.71
2018-08-31T10:35:58.029Z,18.57
2018-08-31T10:36:58.280Z,18.68
2018-08-31T10:37:58.023Z,18.49
2018-08-31T10:38:58.277Z,18.54
2018-08-31T10:39:58.021Z,18.61
2018-08-31T10:40:58.273Z,18.76
2018-08-31T10:41:58.283Z,18.89
2018-08-31T10:42:58.260Z,18.9
2018-08-31T10:43:58.003Z,18.9
2018-08-31T10:44:58.004Z,18.96
2018-08-31T10:45:58.256Z,18.96
2018-08-31T10:46:58.003Z,18.99
2018-08-31T10:47:58.261Z,18.96
2018-08-31T10:48:57.996Z,18.94
2018-08-31T10:49:58.251Z,19.06
2018-08-31T10:50:57.988Z,19.05
2018-08-31T10:51:58.242Z,19.07
2018-08-31T10:52:58.241Z,19.07
2018-08-31T10:53:58.235Z,19.25
2018-08-31T10:54:58.237Z,19.28
2018-08-31T10:55:57.973Z,19.3
2018-08-31T10:56:57.969Z,19.25
2018-08-31T10:57:58.232Z,19.15
2018-08-31T10:58:58.225Z,19.06
2018-08-31T10:59:57.964Z,18.97
2018-08-31T11:00:58.220Z,18.94
2018-08-31T11:01:58.215Z,18.91
2018-08-31T11:02:58.212Z,18.78
2018-08-31T11:03:57.953Z,18.72
2018-08-31T11:04:57.695Z,18.61
2018-08-31T11:05:58.208Z,18.65
2018-08-31T11:06:57.947Z,18.68
2018-08-31T11:07:58.204Z,18.81
2018-08-31T11:08:58.194Z,18.89
2018-08-31T11:09:58.195Z,19.07
2018-08-31T11:10:58.194Z,19.17
2018-08-31T11:11:57.940Z,19.25
2018-08-31T11:12:58.386Z,19.24
2018-08-31T11:13:58.185Z,19.25
2018-08-31T11:14:58.188Z,19.17
2018-08-31T11:15:58.179Z,19.23
2018-08-31T11:16:57.664Z,19.13
2018-08-31T11:17:57.916Z,19.25
2018-08-31T11:18:58.427Z,19.3
2018-08-31T11:19:58.172Z,19.13
2018-08-31T11:20:58.179Z,19
2018-08-31T11:21:58.171Z,18.78
2018-08-31T11:22:57.910Z,18.71
2018-08-31T11:23:57.902Z,18.72
2018-08-31T11:24:58.158Z,18.66
2018-08-31T11:25:58.151Z,18.59
2018-08-31T11:26:57.892Z,18.59
2018-08-31T11:27:58.213Z,18.44
2018-08-31T11:28:58.153Z,18.38
2018-08-31T11:29:58.138Z,18.32
2018-08-31T11:30:58.147Z,18.19
2018-08-31T11:31:58.142Z,18.26
2018-08-31T11:32:58.135Z,18.36
2018-08-31T11:33:57.874Z,18.17
2018-08-31T11:34:57.873Z,18.23
2018-08-31T11:35:57.871Z,18.32
2018-08-31T11:36:57.865Z,18.5
2018-08-31T11:37:58.126Z,18.59
2018-08-31T11:38:58.121Z,18.66
2018-08-31T11:39:57.863Z,18.57
2018-08-31T11:40:57.861Z,18.53
2018-08-31T11:41:58.123Z,18.5
2018-08-31T11:42:58.109Z,18.45
2018-08-31T11:43:57.848Z,18.39
2018-08-31T11:44:57.848Z,18.32
2018-08-31T11:45:57.838Z,18.44
2018-08-31T11:46:57.839Z,18.38
2018-08-31T11:47:57.840Z,18.47
2018-08-31T11:48:58.096Z,18.45
2018-08-31T11:49:58.090Z,18.38
2018-08-31T11:50:58.085Z,18.14
2018-08-31T11:51:57.823Z,18.06
2018-08-31T11:52:58.078Z,17.92
2018-08-31T11:53:57.819Z,17.86
2018-08-31T11:54:57.818Z,17.86
2018-08-31T11:55:57.554Z,18.05
2018-08-31T11:56:58.067Z,18.2
2018-08-31T11:57:58.066Z,18.31
2018-08-31T11:58:58.056Z,18.44
2018-08-31T11:59:57.800Z,18.53
2018-08-31T12:00:57.815Z,18.69
2018-08-31T12:01:58.111Z,18.61
2018-08-31T12:02:58.046Z,18.54
2018-08-31T12:03:57.786Z,18.54
2018-08-31T12:04:58.057Z,18.41
2018-08-31T12:05:57.780Z,18.39
2018-08-31T12:06:57.782Z,18.35
2018-08-31T12:07:58.452Z,18.27
2018-08-31T12:08:58.027Z,18.27
2018-08-31T12:09:57.769Z,18.21
2018-08-31T12:10:57.508Z,18.06
2018-08-31T12:11:58.020Z,18.02
2018-08-31T12:12:58.017Z,17.88
2018-08-31T12:13:57.755Z,17.88
2018-08-31T12:14:58.008Z,17.92
2018-08-31T12:15:57.759Z,17.99
2018-08-31T12:16:57.745Z,18.05
2018-08-31T12:17:58.001Z,18.02
2018-08-31T12:18:57.997Z,18.08
2018-08-31T12:19:57.995Z,18.19
2018-08-31T12:20:58.042Z,18.29
2018-08-31T12:21:57.733Z,18.35
2018-08-31T12:22:57.728Z,18.2
2018-08-31T12:23:57.991Z,18.31
2018-08-31T12:24:57.981Z,18.36
2018-08-31T12:25:57.980Z,18.29
2018-08-31T12:26:57.716Z,18.41
2018-08-31T12:27:57.977Z,18.39
2018-08-31T12:28:57.965Z,18.56
2018-08-31T12:29:57.966Z,18.65
2018-08-31T12:30:57.967Z,18.57
2018-08-31T12:31:57.448Z,18.57
2018-08-31T12:32:57.699Z,18.56
2018-08-31T12:33:57.958Z,18.65
2018-08-31T12:34:57.950Z,18.59
2018-08-31T12:35:57.947Z,18.69
2018-08-31T12:36:57.685Z,18.74
2018-08-31T12:37:57.945Z,18.72
2018-08-31T12:38:57.945Z,18.69
2018-08-31T12:39:57.934Z,18.76
2018-08-31T12:40:57.936Z,18.78
2018-08-31T12:41:57.930Z,18.89
2018-08-31T12:42:57.935Z,19
2018-08-31T12:43:58.205Z,18.9
2018-08-31T12:44:57.667Z,18.96
2018-08-31T12:45:57.924Z,19
2018-08-31T12:46:57.921Z,19.05
2018-08-31T12:47:57.935Z,19.09
2018-08-31T12:48:57.911Z,19.12
2018-08-31T12:49:57.904Z,19.24
2018-08-31T12:50:57.911Z,19.3
2018-08-31T12:51:57.908Z,19.3
2018-08-31T12:52:57.905Z,19.24
2018-08-31T12:53:57.905Z,19.2
2018-08-31T12:54:57.895Z,19.24
2018-08-31T12:55:57.891Z,19.37